createdAt,value
2019-01-24T00:00:16.206Z,999.43
2019-01-24T00:01:16.219Z,999.41
2019-01-24T00:02:16.183Z,999.49
2019-01-24T00:03:16.174Z,999.50
2019-01-24T00:04:16.915Z,999.54
2019-01-24T00:05:16.156Z,999.49
2019-01-24T00:06:16.168Z,999.52
2019-01-24T00:07:16.129Z,999.55
2019-01-24T00:08:16.124Z,999.51
2019-01-24T00:09:16.107Z,999.58
2019-01-24T00:10:16.097Z,999.57
2019-01-24T00:11:16.109Z,999.56
2019-01-24T00:12:16.075Z,999.59
2019-01-24T00:13:16.065Z,999.60
2019-01-24T00:14:16.122Z,999.60
2019-01-24T00:15:16.041Z,999.58
2019-01-24T00:16:16.105Z,999.63
2019-01-24T00:17:16.023Z,999.61
2019-01-24T00:18:16.057Z,999.65
2019-01-24T00:19:15.999Z,999.60
2019-01-24T00:20:15.987Z,999.65
2019-01-24T00:21:15.999Z,999.71
2019-01-24T00:22:15.965Z,999.69
2019-01-24T00:23:15.953Z,999.69
2019-01-24T00:24:15.944Z,999.70
2019-01-24T00:25:15.934Z,999.71
2019-01-24T00:26:15.945Z,999.70
2019-01-24T00:27:15.911Z,999.77
2019-01-24T00:28:15.899Z,999.77
2019-01-24T00:29:15.889Z,999.76
2019-01-24T00:30:15.877Z,999.76
2019-01-24T00:31:15.890Z,999.83
2019-01-24T00:32:15.855Z,999.83
2019-01-24T00:33:15.844Z,999.84
2019-01-24T00:34:15.834Z,999.85
2019-01-24T00:35:15.823Z,999.84
2019-01-24T00:36:15.813Z,999.85
2019-01-24T00:37:15.825Z,999.88
2019-01-24T00:38:15.791Z,999.87
2019-01-24T00:39:15.779Z,999.88
2019-01-24T00:40:15.769Z,999.92
2019-01-24T00:41:15.785Z,999.90
2019-01-24T00:42:15.746Z,999.87
2019-01-24T00:43:15.736Z,999.88
2019-01-24T00:44:15.723Z,999.89
2019-01-24T00:45:15.714Z,999.89
2019-01-24T00:46:15.703Z,999.89
2019-01-24T00:47:15.716Z,999.85
2019-01-24T00:48:15.680Z,999.88
2019-01-24T00:49:15.672Z,999.89
2019-01-24T00:50:15.661Z,999.92
2019-01-24T00:51:15.651Z,999.87
2019-01-24T00:52:15.663Z,999.92
2019-01-24T00:53:15.625Z,999.91
2019-01-24T00:54:15.615Z,999.92
2019-01-24T00:55:15.609Z,999.91
2019-01-24T00:56:15.596Z,999.92
2019-01-24T00:57:15.608Z,999.95
2019-01-24T00:58:15.571Z,999.94
2019-01-24T00:59:15.559Z,999.95
2019-01-24T01:00:15.550Z,999.92
2019-01-24T01:01:15.538Z,999.93
2019-01-24T01:02:15.553Z,999.93
2019-01-24T01:03:15.518Z,999.97
2019-01-24T01:04:15.506Z,999.97
2019-01-24T01:05:15.494Z,999.95
2019-01-24T01:06:15.483Z,999.99
2019-01-24T01:07:15.496Z,999.97
2019-01-24T01:08:15.462Z,999.96
2019-01-24T01:09:15.451Z,1000.00
2019-01-24T01:10:15.440Z,1000.03
2019-01-24T01:11:15.430Z,1000.03
2019-01-24T01:12:15.441Z,1000.07
2019-01-24T01:13:15.407Z,1000.10
2019-01-24T01:14:15.396Z,1000.07
2019-01-24T01:15:15.386Z,1000.14
2019-01-24T01:16:15.374Z,1000.16
2019-01-24T01:17:15.388Z,1000.13
2019-01-24T01:18:15.353Z,1000.14
2019-01-24T01:19:15.342Z,1000.15
2019-01-24T01:20:15.333Z,1000.19
2019-01-24T01:21:15.319Z,1000.25
2019-01-24T01:22:15.333Z,1000.24
2019-01-24T01:23:15.300Z,1000.26
2019-01-24T01:24:15.289Z,1000.28
2019-01-24T01:25:15.277Z,1000.21
2019-01-24T01:26:15.265Z,1000.27
2019-01-24T01:27:15.278Z,1000.30
2019-01-24T01:28:15.244Z,1000.34
2019-01-24T01:29:15.230Z,1000.32
2019-01-24T01:30:15.221Z,1000.34
2019-01-24T01:31:15.210Z,1000.35
2019-01-24T01:32:15.223Z,1000.36
2019-01-24T01:33:15.186Z,1000.38
2019-01-24T01:34:15.180Z,1000.43
2019-01-24T01:35:15.167Z,1000.38
2019-01-24T01:36:15.155Z,1000.39
2019-01-24T01:37:15.169Z,1000.36
2019-01-24T01:38:15.139Z,1000.42
2019-01-24T01:39:15.123Z,1000.44
2019-01-24T01:40:15.111Z,1000.42
2019-01-24T01:41:15.099Z,1000.41
2019-01-24T01:42:15.113Z,1000.39
2019-01-24T01:43:15.079Z,1000.44
2019-01-24T01:44:15.065Z,1000.39
2019-01-24T01:45:15.055Z,1000.46
2019-01-24T01:46:15.046Z,1000.48
2019-01-24T01:47:15.060Z,1000.49
2019-01-24T01:48:15.025Z,1000.48
2019-01-24T01:49:15.012Z,1000.53
2019-01-24T01:50:15.000Z,1000.49
2019-01-24T01:51:14.990Z,1000.54
2019-01-24T01:52:15.003Z,1000.51
2019-01-24T01:53:14.968Z,1000.52
2019-01-24T01:54:14.957Z,1000.55
2019-01-24T01:55:14.949Z,1000.56
2019-01-24T01:56:14.936Z,1000.59
2019-01-24T01:57:14.949Z,1000.57
2019-01-24T01:58:14.917Z,1000.61
2019-01-24T01:59:14.904Z,1000.62
2019-01-24T02:00:14.892Z,1000.58
2019-01-24T02:01:14.881Z,1000.59
2019-01-24T02:02:14.898Z,1000.58
2019-01-24T02:03:14.859Z,1000.62
2019-01-24T02:04:14.850Z,1000.60
2019-01-24T02:05:14.838Z,1000.63
2019-01-24T02:06:14.827Z,1000.63
2019-01-24T02:07:14.840Z,1000.64
2019-01-24T02:08:14.804Z,1000.60
2019-01-24T02:09:14.794Z,1000.66
2019-01-24T02:10:14.783Z,1000.66
2019-01-24T02:11:14.772Z,1000.61
2019-01-24T02:12:14.785Z,1000.66
2019-01-24T02:13:14.750Z,1000.74
2019-01-24T02:14:14.739Z,1000.70
2019-01-24T02:15:14.728Z,1000.68
2019-01-24T02:16:14.717Z,1000.60
2019-01-24T02:17:14.731Z,1000.63
2019-01-24T02:18:14.695Z,1000.61
2019-01-24T02:19:14.689Z,1000.67
2019-01-24T02:20:14.674Z,1000.70
2019-01-24T02:21:14.663Z,1000.67
2019-01-24T02:22:14.657Z,1000.71
2019-01-24T02:23:14.665Z,1000.71
2019-01-24T02:24:14.628Z,1000.78
2019-01-24T02:25:14.617Z,1000.75
2019-01-24T02:26:14.606Z,1000.76
2019-01-24T02:27:14.597Z,1000.80
2019-01-24T02:28:14.608Z,1000.76
2019-01-24T02:29:14.573Z,1000.75
2019-01-24T02:30:14.564Z,1000.76
2019-01-24T02:31:14.555Z,1000.75
2019-01-24T02:32:14.541Z,1000.76
2019-01-24T02:33:14.556Z,1000.79
2019-01-24T02:34:14.525Z,1000.81
2019-01-24T02:35:14.509Z,1000.78
2019-01-24T02:36:14.498Z,1000.81
2019-01-24T02:37:14.489Z,1000.77
2019-01-24T02:38:14.502Z,1000.74
2019-01-24T02:39:14.464Z,1000.77
2019-01-24T02:40:14.455Z,1000.74
2019-01-24T02:41:14.443Z,1000.80
2019-01-24T02:42:14.433Z,1000.83
2019-01-24T02:43:14.445Z,1000.79
2019-01-24T02:44:14.408Z,1000.81
2019-01-24T02:45:14.399Z,1000.85
2019-01-24T02:46:14.392Z,1000.85
2019-01-24T02:47:14.377Z,1000.84
2019-01-24T02:48:14.390Z,1000.82
2019-01-24T02:49:14.356Z,1000.85
2019-01-24T02:50:14.345Z,1000.86
2019-01-24T02:51:14.332Z,1000.82
2019-01-24T02:52:14.322Z,1000.90
2019-01-24T02:53:14.338Z,1000.87
2019-01-24T02:54:14.302Z,1000.86
2019-01-24T02:55:14.288Z,1000.90
2019-01-24T02:56:14.279Z,1000.90
2019-01-24T02:57:14.272Z,1000.94
2019-01-24T02:58:14.282Z,1000.96
2019-01-24T02:59:14.247Z,1000.95
2019-01-24T03:00:14.235Z,1000.94
2019-01-24T03:01:14.224Z,1000.93
2019-01-24T03:02:14.214Z,1000.95
2019-01-24T03:03:14.226Z,1000.97
2019-01-24T03:04:14.195Z,1000.98
2019-01-24T03:05:14.181Z,1000.98
2019-01-24T03:06:14.170Z,1001.01
2019-01-24T03:07:14.161Z,1000.98
2019-01-24T03:08:14.171Z,1000.98
2019-01-24T03:09:14.136Z,1000.99
2019-01-24T03:10:14.127Z,1001.00
2019-01-24T03:11:14.118Z,1001.02
2019-01-24T03:12:14.104Z,1000.99
2019-01-24T03:13:14.122Z,1001.05
2019-01-24T03:14:14.082Z,1001.02
2019-01-24T03:15:14.073Z,1001.06
2019-01-24T03:16:14.060Z,1000.97
2019-01-24T03:17:14.053Z,1001.02
2019-01-24T03:18:14.062Z,1001.03
2019-01-24T03:19:14.028Z,1001.03
2019-01-24T03:20:14.016Z,1001.03
2019-01-24T03:21:14.006Z,1001.07
2019-01-24T03:22:13.996Z,1001.06
2019-01-24T03:23:14.009Z,1001.03
2019-01-24T03:24:13.972Z,1001.02
2019-01-24T03:25:13.965Z,1001.03
2019-01-24T03:26:13.953Z,1001.04
2019-01-24T03:27:13.940Z,1001.03
2019-01-24T03:28:13.953Z,1001.06
2019-01-24T03:29:13.919Z,1001.03
2019-01-24T03:30:13.910Z,1001.09
2019-01-24T03:31:13.901Z,1001.07
2019-01-24T03:32:13.887Z,1001.06
2019-01-24T03:33:13.900Z,1001.05
2019-01-24T03:34:13.864Z,1001.04
2019-01-24T03:35:13.857Z,1001.03
2019-01-24T03:36:13.843Z,1001.04
2019-01-24T03:37:13.830Z,1001.02
2019-01-24T03:38:13.845Z,1001.02
2019-01-24T03:39:13.826Z,1001.02
2019-01-24T03:40:13.800Z,1001.05
2019-01-24T03:41:13.797Z,1001.07
2019-01-24T03:42:13.777Z,1001.05
2019-01-24T03:43:13.791Z,1001.09
2019-01-24T03:44:13.754Z,1001.03
2019-01-24T03:45:13.742Z,1001.07
2019-01-24T03:46:13.733Z,1001.03
2019-01-24T03:47:13.723Z,1001.02
2019-01-24T03:48:13.736Z,1001.07
2019-01-24T03:49:14.421Z,1001.05
2019-01-24T03:50:13.690Z,1001.04
2019-01-24T03:51:13.677Z,1001.04
2019-01-24T03:52:13.669Z,1001.08
2019-01-24T03:53:13.685Z,1001.14
2019-01-24T03:54:13.645Z,1001.08
2019-01-24T03:55:13.635Z,1001.12
2019-01-24T03:56:13.626Z,1001.09
2019-01-24T03:57:13.613Z,1001.13
2019-01-24T03:58:13.626Z,1001.09
2019-01-24T03:59:13.592Z,1001.11
2019-01-24T04:00:13.582Z,1001.10
2019-01-24T04:01:13.574Z,1001.16
2019-01-24T04:02:13.559Z,1001.14
2019-01-24T04:03:13.572Z,1001.14
2019-01-24T04:04:13.536Z,1001.14
2019-01-24T04:05:13.526Z,1001.11
2019-01-24T04:06:13.517Z,1001.18
2019-01-24T04:07:13.508Z,1001.17
2019-01-24T04:08:13.496Z,1001.17
2019-01-24T04:09:13.507Z,1001.14
2019-01-24T04:10:13.473Z,1001.15
2019-01-24T04:11:13.462Z,1001.14
2019-01-24T04:12:13.450Z,1001.20
2019-01-24T04:13:13.441Z,1001.21
2019-01-24T04:14:13.451Z,1001.22
2019-01-24T04:15:13.420Z,1001.18
2019-01-24T04:16:13.409Z,1001.19
2019-01-24T04:17:13.395Z,1001.23
2019-01-24T04:18:13.385Z,1001.23
2019-01-24T04:19:13.398Z,1001.21
2019-01-24T04:20:13.363Z,1001.24
2019-01-24T04:21:13.350Z,1001.25
2019-01-24T04:22:13.347Z,1001.27
2019-01-24T04:23:13.332Z,1001.27
2019-01-24T04:24:13.341Z,1001.28
2019-01-24T04:25:13.307Z,1001.27
2019-01-24T04:26:13.298Z,1001.27
2019-01-24T04:27:13.286Z,1001.29
2019-01-24T04:28:13.281Z,1001.30
2019-01-24T04:29:13.290Z,1001.31
2019-01-24T04:30:13.261Z,1001.23
2019-01-24T04:31:13.241Z,1001.23
2019-01-24T04:32:13.230Z,1001.31
2019-01-24T04:33:13.219Z,1001.25
2019-01-24T04:34:13.233Z,1001.28
2019-01-24T04:35:19.707Z,1001.37
2019-01-24T04:36:14.450Z,1001.36
2019-01-24T04:37:13.177Z,1001.36
2019-01-24T04:38:13.165Z,1001.38
2019-01-24T04:39:13.214Z,1001.37
2019-01-24T04:40:13.146Z,1001.43
2019-01-24T04:41:13.150Z,1001.37
2019-01-24T04:42:13.129Z,1001.43
2019-01-24T04:43:13.109Z,1001.44
2019-01-24T04:44:13.124Z,1001.42
2019-01-24T04:45:13.090Z,1001.47
2019-01-24T04:46:13.077Z,1001.44
2019-01-24T04:47:13.066Z,1001.48
2019-01-24T04:48:13.058Z,1001.45
2019-01-24T04:49:13.069Z,1001.50
2019-01-24T04:50:13.035Z,1001.55
2019-01-24T04:51:13.023Z,1001.53
2019-01-24T04:52:13.011Z,1001.56
2019-01-24T04:53:13.006Z,1001.60
2019-01-24T04:54:13.026Z,1001.59
2019-01-24T04:55:12.994Z,1001.57
2019-01-24T04:56:12.968Z,1001.59
2019-01-24T04:57:12.956Z,1001.56
2019-01-24T04:58:12.944Z,1001.60
2019-01-24T04:59:12.960Z,1001.58
2019-01-24T05:00:12.924Z,1001.56
2019-01-24T05:01:12.911Z,1001.67
2019-01-24T05:02:12.900Z,1001.68
2019-01-24T05:03:12.889Z,1001.66
2019-01-24T05:04:12.904Z,1001.67
2019-01-24T05:05:12.867Z,1001.67
2019-01-24T05:06:12.856Z,1001.70
2019-01-24T05:07:12.843Z,1001.74
2019-01-24T05:08:12.833Z,1001.72
2019-01-24T05:09:12.850Z,1001.73
2019-01-24T05:10:12.814Z,1001.70
2019-01-24T05:11:12.800Z,1001.75
2019-01-24T05:12:12.789Z,1001.76
2019-01-24T05:13:12.777Z,1001.78
2019-01-24T05:14:12.791Z,1001.78
2019-01-24T05:15:12.758Z,1001.73
2019-01-24T05:16:12.745Z,1001.78
2019-01-24T05:17:12.734Z,1001.81
2019-01-24T05:18:12.740Z,1001.81
2019-01-24T05:19:12.737Z,1001.85
2019-01-24T05:20:12.703Z,1001.86
2019-01-24T05:21:12.691Z,1001.86
2019-01-24T05:22:12.685Z,1001.85
2019-01-24T05:23:12.668Z,1001.87
2019-01-24T05:24:12.687Z,1001.86
2019-01-24T05:25:12.647Z,1001.88
2019-01-24T05:26:12.636Z,1001.89
2019-01-24T05:27:12.627Z,1001.95
2019-01-24T05:28:12.621Z,1001.95
2019-01-24T05:29:12.626Z,1001.98
2019-01-24T05:30:12.590Z,1002.01
2019-01-24T05:31:12.582Z,1001.98
2019-01-24T05:32:12.566Z,1002.02
2019-01-24T05:33:12.558Z,1002.01
2019-01-24T05:34:12.570Z,1002.03
2019-01-24T05:35:12.535Z,1002.07
2019-01-24T05:36:12.523Z,1002.06
2019-01-24T05:37:12.525Z,1002.07
2019-01-24T05:38:12.505Z,1002.05
2019-01-24T05:39:12.516Z,1002.08
2019-01-24T05:40:12.479Z,1002.08
2019-01-24T05:41:12.469Z,1002.08
2019-01-24T05:42:12.457Z,1002.11
2019-01-24T05:43:12.444Z,1002.10
2019-01-24T05:44:12.458Z,1002.10
2019-01-24T05:45:12.422Z,1002.11
2019-01-24T05:46:12.412Z,1002.10
2019-01-24T05:47:12.401Z,1002.10
2019-01-24T05:48:12.391Z,1002.10
2019-01-24T05:49:12.381Z,1002.12
2019-01-24T05:50:12.392Z,1002.13
2019-01-24T05:51:12.356Z,1002.19
2019-01-24T05:52:19.211Z,1002.14
2019-01-24T05:53:13.335Z,1002.21
2019-01-24T05:54:12.326Z,1002.17
2019-01-24T05:55:12.336Z,1002.21
2019-01-24T05:56:12.302Z,1002.16
2019-01-24T05:57:12.291Z,1002.21
2019-01-24T05:58:12.311Z,1002.20
2019-01-24T05:59:12.269Z,1002.31
2019-01-24T06:00:12.284Z,1002.29
2019-01-24T06:01:12.247Z,1002.33
2019-01-24T06:02:12.237Z,1002.31
2019-01-24T06:03:12.225Z,1002.29
2019-01-24T06:04:12.215Z,1002.37
2019-01-24T06:05:12.229Z,1002.33
2019-01-24T06:06:12.192Z,1002.33
2019-01-24T06:07:12.182Z,1002.29
2019-01-24T06:08:12.170Z,1002.26
2019-01-24T06:09:12.159Z,1002.26
2019-01-24T06:10:12.172Z,1002.28
2019-01-24T06:11:12.138Z,1002.27
2019-01-24T06:12:12.126Z,1002.24
2019-01-24T06:13:12.115Z,1002.30
2019-01-24T06:14:12.103Z,1002.28
2019-01-24T06:15:12.121Z,1002.26
2019-01-24T06:16:12.081Z,1002.30
2019-01-24T06:17:12.074Z,1002.29
2019-01-24T06:18:12.059Z,1002.27
2019-01-24T06:19:12.051Z,1002.29
2019-01-24T06:20:12.062Z,1002.31
2019-01-24T06:21:12.025Z,1002.25
2019-01-24T06:22:12.015Z,1002.29
2019-01-24T06:23:12.011Z,1002.27
2019-01-24T06:24:11.995Z,1002.28
2019-01-24T06:25:12.007Z,1002.24
2019-01-24T06:26:11.972Z,1002.23
2019-01-24T06:27:11.962Z,1002.28
2019-01-24T06:28:11.950Z,1002.28
2019-01-24T06:29:11.939Z,1002.28
2019-01-24T06:30:11.953Z,1002.31
2019-01-24T06:31:11.918Z,1002.33
2019-01-24T06:32:11.906Z,1002.32
2019-01-24T06:33:11.897Z,1002.33
2019-01-24T06:34:11.885Z,1002.35
2019-01-24T06:35:11.899Z,1002.41
2019-01-24T06:36:11.862Z,1002.38
2019-01-24T06:37:11.852Z,1002.39
2019-01-24T06:38:11.840Z,1002.40
2019-01-24T06:39:11.830Z,1002.43
2019-01-24T06:40:11.842Z,1002.40
2019-01-24T06:41:11.808Z,1002.40
2019-01-24T06:42:11.799Z,1002.38
2019-01-24T06:43:11.786Z,1002.43
2019-01-24T06:44:11.774Z,1002.43
2019-01-24T06:45:11.788Z,1002.44
2019-01-24T06:46:11.753Z,1002.48
2019-01-24T06:47:11.746Z,1002.49
2019-01-24T06:48:11.732Z,1002.49
2019-01-24T06:49:11.720Z,1002.50
2019-01-24T06:50:11.736Z,1002.50
2019-01-24T06:51:11.698Z,1002.48
2019-01-24T06:52:11.685Z,1002.59
2019-01-24T06:53:11.680Z,1002.55
2019-01-24T06:54:11.664Z,1002.60
2019-01-24T06:55:11.678Z,1002.59
2019-01-24T06:56:11.641Z,1002.63
2019-01-24T06:57:11.630Z,1002.63
2019-01-24T06:58:11.620Z,1002.65
2019-01-24T06:59:11.608Z,1002.69
2019-01-24T07:00:11.621Z,1002.67
2019-01-24T07:01:11.586Z,1002.72
2019-01-24T07:02:11.574Z,1002.71
2019-01-24T07:03:11.563Z,1002.72
2019-01-24T07:04:11.551Z,1002.76
2019-01-24T07:05:11.566Z,1002.76
2019-01-24T07:06:11.529Z,1002.74
2019-01-24T07:07:11.518Z,1002.75
2019-01-24T07:08:11.508Z,1002.80
2019-01-24T07:09:11.496Z,1002.74
2019-01-24T07:10:11.509Z,1002.73
2019-01-24T07:11:11.473Z,1002.76
2019-01-24T07:12:11.463Z,1002.82
2019-01-24T07:13:11.451Z,1002.81
2019-01-24T07:14:11.442Z,1002.85
2019-01-24T07:15:11.453Z,1002.78
2019-01-24T07:16:11.420Z,1002.84
2019-01-24T07:17:11.407Z,1002.88
2019-01-24T07:18:11.398Z,1002.85
2019-01-24T07:19:11.385Z,1002.87
2019-01-24T07:20:11.399Z,1002.92
2019-01-24T07:21:11.364Z,1002.89
2019-01-24T07:22:11.355Z,1002.90
2019-01-24T07:23:11.342Z,1002.85
2019-01-24T07:24:11.331Z,1002.87
2019-01-24T07:25:11.345Z,1002.81
2019-01-24T07:26:11.308Z,1002.85
2019-01-24T07:27:11.299Z,1002.85
2019-01-24T07:28:11.286Z,1002.85
2019-01-24T07:29:11.276Z,1002.90
2019-01-24T07:30:11.306Z,1002.92
2019-01-24T07:31:11.254Z,1002.93
2019-01-24T07:32:11.242Z,1002.97
2019-01-24T07:33:11.231Z,1002.97
2019-01-24T07:34:11.220Z,1003.01
2019-01-24T07:35:11.209Z,1003.01
2019-01-24T07:36:11.223Z,1002.98
2019-01-24T07:37:11.187Z,1003.04
2019-01-24T07:38:11.175Z,1003.03
2019-01-24T07:39:11.167Z,1003.13
2019-01-24T07:40:11.159Z,1003.13
2019-01-24T07:41:11.168Z,1003.08
2019-01-24T07:42:11.132Z,1003.17
2019-01-24T07:43:11.121Z,1003.13
2019-01-24T07:44:11.111Z,1003.19
2019-01-24T07:45:11.101Z,1003.24
2019-01-24T07:46:11.111Z,1003.24
2019-01-24T07:47:11.077Z,1003.29
2019-01-24T07:48:11.065Z,1003.30
2019-01-24T07:49:11.055Z,1003.28
2019-01-24T07:50:11.044Z,1003.35
2019-01-24T07:51:11.055Z,1003.29
2019-01-24T07:52:11.020Z,1003.28
2019-01-24T07:53:11.009Z,1003.35
2019-01-24T07:54:11.000Z,1003.33
2019-01-24T07:55:10.987Z,1003.36
2019-01-24T07:56:11.000Z,1003.35
2019-01-24T07:57:10.965Z,1003.37
2019-01-24T07:58:10.956Z,1003.39
2019-01-24T07:59:10.946Z,1003.40
2019-01-24T08:00:10.932Z,1003.44
2019-01-24T08:01:10.946Z,1003.46
2019-01-24T08:02:10.914Z,1003.45
2019-01-24T08:03:10.900Z,1003.49
2019-01-24T08:04:10.887Z,1003.48
2019-01-24T08:05:10.877Z,1003.52
2019-01-24T08:06:10.889Z,1003.52
2019-01-24T08:07:10.857Z,1003.53
2019-01-24T08:08:10.842Z,1003.57
2019-01-24T08:09:10.862Z,1003.59
2019-01-24T08:10:10.823Z,1003.60
2019-01-24T08:11:10.834Z,1003.61
2019-01-24T08:12:10.799Z,1003.63
2019-01-24T08:13:10.788Z,1003.61
2019-01-24T08:14:10.775Z,1003.56
2019-01-24T08:15:10.778Z,1003.58
2019-01-24T08:16:10.777Z,1003.56
2019-01-24T08:17:10.743Z,1003.59
2019-01-24T08:18:10.732Z,1003.64
2019-01-24T08:19:10.721Z,1003.65
2019-01-24T08:20:10.710Z,1003.67
2019-01-24T08:21:10.724Z,1003.65
2019-01-24T08:22:10.687Z,1003.69
2019-01-24T08:23:10.675Z,1003.75
2019-01-24T08:24:10.664Z,1003.74
2019-01-24T08:25:10.653Z,1003.74
2019-01-24T08:26:10.686Z,1003.72
2019-01-24T08:27:10.631Z,1003.76
2019-01-24T08:28:10.621Z,1003.80
2019-01-24T08:29:10.609Z,1003.80
2019-01-24T08:30:10.598Z,1003.77
2019-01-24T08:31:10.624Z,1003.83
2019-01-24T08:32:10.575Z,1003.89
2019-01-24T08:33:10.569Z,1003.85
2019-01-24T08:34:10.554Z,1003.88
2019-01-24T08:35:10.544Z,1003.89
2019-01-24T08:36:15.561Z,1003.92
2019-01-24T08:37:11.518Z,1003.91
2019-01-24T08:38:10.515Z,1003.88
2019-01-24T08:39:10.499Z,1003.87
2019-01-24T08:40:10.488Z,1003.93
2019-01-24T08:41:10.500Z,1003.90
2019-01-24T08:42:10.463Z,1003.83
2019-01-24T08:43:10.472Z,1003.88
2019-01-24T08:44:10.490Z,1003.90
2019-01-24T08:45:10.431Z,1003.91
2019-01-24T08:46:10.445Z,1003.90
2019-01-24T08:47:10.408Z,1003.94
2019-01-24T08:48:10.403Z,1003.97
2019-01-24T08:49:10.389Z,1004.01
2019-01-24T08:50:10.376Z,1004.04
2019-01-24T08:51:10.424Z,1004.05
2019-01-24T08:52:10.353Z,1004.04
2019-01-24T08:53:10.341Z,1004.09
2019-01-24T08:54:10.331Z,1004.06
2019-01-24T08:55:10.321Z,1004.08
2019-01-24T08:56:10.333Z,1004.06
2019-01-24T08:57:10.298Z,1004.06
2019-01-24T08:58:10.288Z,1004.12
2019-01-24T08:59:10.276Z,1004.06
2019-01-24T09:00:10.265Z,1004.08
2019-01-24T09:01:10.283Z,1004.12
2019-01-24T09:02:10.244Z,1004.14
2019-01-24T09:03:10.230Z,1004.19
2019-01-24T09:04:10.220Z,1004.15
2019-01-24T09:05:10.209Z,1004.24
2019-01-24T09:06:10.220Z,1004.17
2019-01-24T09:07:10.187Z,1004.19
2019-01-24T09:08:10.175Z,1004.22
2019-01-24T09:09:10.164Z,1004.17
2019-01-24T09:10:10.154Z,1004.22
2019-01-24T09:11:10.167Z,1004.24
2019-01-24T09:12:10.131Z,1004.23
2019-01-24T09:13:10.119Z,1004.18
2019-01-24T09:14:10.109Z,1004.20
2019-01-24T09:15:10.097Z,1004.21
2019-01-24T09:16:10.111Z,1004.25
2019-01-24T09:17:10.076Z,1004.25
2019-01-24T09:18:10.064Z,1004.22
2019-01-24T09:19:10.054Z,1004.21
2019-01-24T09:20:10.043Z,1004.30
2019-01-24T09:21:10.040Z,1004.27
2019-01-24T09:22:10.045Z,1004.33
2019-01-24T09:23:10.009Z,1004.33
2019-01-24T09:24:10.081Z,1004.35
2019-01-24T09:25:09.987Z,1004.37
2019-01-24T09:26:09.977Z,1004.36
2019-01-24T09:27:09.992Z,1004.40
2019-01-24T09:28:14.880Z,1004.38
2019-01-24T09:29:10.942Z,1004.42
2019-01-24T09:30:09.933Z,1004.39
2019-01-24T09:31:09.924Z,1004.39
2019-01-24T09:32:09.932Z,1004.43
2019-01-24T09:33:09.903Z,1004.40
2019-01-24T09:34:09.889Z,1004.46
2019-01-24T09:35:09.877Z,1004.42
2019-01-24T09:36:10.638Z,1004.45
2019-01-24T09:37:09.855Z,1004.48
2019-01-24T09:38:09.843Z,1004.45
2019-01-24T09:39:09.837Z,1004.48
2019-01-24T09:40:09.824Z,1004.49
2019-01-24T09:41:09.812Z,1004.53
2019-01-24T09:42:09.824Z,1004.48
2019-01-24T09:43:09.788Z,1004.50
2019-01-24T09:44:09.777Z,1004.48
2019-01-24T09:45:09.791Z,1004.50
2019-01-24T09:46:09.758Z,1004.50
2019-01-24T09:47:09.769Z,1004.54
2019-01-24T09:48:09.735Z,1004.53
2019-01-24T09:49:09.722Z,1004.54
2019-01-24T09:50:09.711Z,1004.56
2019-01-24T09:51:09.700Z,1004.57
2019-01-24T09:52:09.713Z,1004.54
2019-01-24T09:53:09.677Z,1004.54
2019-01-24T09:54:09.668Z,1004.51
2019-01-24T09:55:09.656Z,1004.57
2019-01-24T09:56:09.653Z,1004.54
2019-01-24T09:57:09.660Z,1004.54
2019-01-24T09:58:09.624Z,1004.54
2019-01-24T09:59:09.610Z,1004.56
2019-01-24T10:00:09.599Z,1004.56
2019-01-24T10:01:09.587Z,1004.53
2019-01-24T10:02:09.601Z,1004.53
2019-01-24T10:03:09.566Z,1004.50
2019-01-24T10:04:09.555Z,1004.53
2019-01-24T10:05:09.545Z,1004.51
2019-01-24T10:06:09.532Z,1004.55
2019-01-24T10:07:09.548Z,1004.51
2019-01-24T10:08:09.518Z,1004.54
2019-01-24T10:09:09.499Z,1004.51
2019-01-24T10:10:09.497Z,1004.55
2019-01-24T10:11:09.478Z,1004.54
2019-01-24T10:12:09.492Z,1004.53
2019-01-24T10:13:09.466Z,1004.55
2019-01-24T10:14:09.446Z,1004.57
2019-01-24T10:15:09.434Z,1004.54
2019-01-24T10:16:09.421Z,1004.53
2019-01-24T10:17:09.434Z,1004.53
2019-01-24T10:18:09.399Z,1004.55
2019-01-24T10:19:09.388Z,1004.56
2019-01-24T10:20:09.378Z,1004.57
2019-01-24T10:21:09.367Z,1004.57
2019-01-24T10:22:09.377Z,1004.56
2019-01-24T10:23:09.346Z,1004.52
2019-01-24T10:24:09.333Z,1004.52
2019-01-24T10:25:09.325Z,1004.49
2019-01-24T10:26:09.310Z,1004.55
2019-01-24T10:27:09.327Z,1004.49
2019-01-24T10:28:09.289Z,1004.49
2019-01-24T10:29:09.278Z,1004.49
2019-01-24T10:30:09.266Z,1004.55
2019-01-24T10:31:09.257Z,1004.56
2019-01-24T10:32:09.268Z,1004.57
2019-01-24T10:33:09.233Z,1004.58
2019-01-24T10:34:09.221Z,1004.59
2019-01-24T10:35:09.210Z,1004.59
2019-01-24T10:36:09.198Z,1004.59
2019-01-24T10:37:09.211Z,1004.59
2019-01-24T10:38:09.177Z,1004.60
2019-01-24T10:39:09.169Z,1004.51
2019-01-24T10:40:09.155Z,1004.51
2019-01-24T10:41:09.142Z,1004.46
2019-01-24T10:42:09.158Z,1004.50
2019-01-24T10:43:09.121Z,1004.49
2019-01-24T10:44:09.109Z,1004.53
2019-01-24T10:45:09.098Z,1004.53
2019-01-24T10:46:09.087Z,1004.51
2019-01-24T10:47:09.100Z,1004.51
2019-01-24T10:48:09.067Z,1004.56
2019-01-24T10:49:09.054Z,1004.60
2019-01-24T10:50:09.082Z,1004.59
2019-01-24T10:51:09.037Z,1004.63
2019-01-24T10:52:09.044Z,1004.58
2019-01-24T10:53:09.009Z,1004.52
2019-01-24T10:54:09.001Z,1004.53
2019-01-24T10:55:13.591Z,1004.51
2019-01-24T10:56:08.976Z,1004.54
2019-01-24T10:57:08.967Z,1004.58
2019-01-24T10:58:08.979Z,1004.60
2019-01-24T10:59:08.943Z,1004.66
2019-01-24T11:00:08.933Z,1004.63
2019-01-24T11:01:08.922Z,1004.63
2019-01-24T11:02:08.934Z,1004.59
2019-01-24T11:03:08.901Z,1004.58
2019-01-24T11:04:08.888Z,1004.61
2019-01-24T11:05:08.882Z,1004.63
2019-01-24T11:06:08.866Z,1004.61
2019-01-24T11:07:08.856Z,1004.57
2019-01-24T11:08:08.867Z,1004.56
2019-01-24T11:09:08.845Z,1004.57
2019-01-24T11:10:10.174Z,1004.59
2019-01-24T11:11:08.813Z,1004.59
2019-01-24T11:12:08.800Z,1004.59
2019-01-24T11:13:08.813Z,1004.55
2019-01-24T11:14:08.779Z,1004.57
2019-01-24T11:15:08.769Z,1004.58
2019-01-24T11:16:08.756Z,1004.62
2019-01-24T11:17:08.748Z,1004.53
2019-01-24T11:18:08.758Z,1004.58
2019-01-24T11:19:08.726Z,1004.60
2019-01-24T11:20:08.712Z,1004.60
2019-01-24T11:21:08.702Z,1004.63
2019-01-24T11:22:08.691Z,1004.65
2019-01-24T11:23:09.116Z,1004.56
2019-01-24T11:24:08.670Z,1004.65
2019-01-24T11:25:08.657Z,1004.60
2019-01-24T11:26:08.648Z,1004.63
2019-01-24T11:27:08.636Z,1004.59
2019-01-24T11:28:08.647Z,1004.65
2019-01-24T11:29:08.614Z,1004.59
2019-01-24T11:30:08.601Z,1004.64
2019-01-24T11:31:08.592Z,1004.69
2019-01-24T11:32:08.581Z,1004.66
2019-01-24T11:33:08.595Z,1004.66
2019-01-24T11:34:08.558Z,1004.65
2019-01-24T11:35:08.551Z,1004.70
2019-01-24T11:36:08.535Z,1004.68
2019-01-24T11:37:08.525Z,1004.63
2019-01-24T11:38:08.539Z,1004.69
2019-01-24T11:39:08.503Z,1004.66
2019-01-24T11:40:08.492Z,1004.60
2019-01-24T11:41:08.480Z,1004.61
2019-01-24T11:42:08.477Z,1004.59
2019-01-24T11:43:08.483Z,1004.55
2019-01-24T11:44:08.448Z,1004.54
2019-01-24T11:45:08.443Z,1004.56
2019-01-24T11:46:08.427Z,1004.51
2019-01-24T11:47:08.415Z,1004.59
2019-01-24T11:48:08.427Z,1004.52
2019-01-24T11:49:08.393Z,1004.55
2019-01-24T11:50:08.382Z,1004.58
2019-01-24T11:51:08.371Z,1004.57
2019-01-24T11:52:08.363Z,1004.58
2019-01-24T11:53:08.375Z,1004.60
2019-01-24T11:54:08.338Z,1004.61
2019-01-24T11:55:08.327Z,1004.62
2019-01-24T11:56:08.317Z,1004.65
2019-01-24T11:57:08.305Z,1004.68
2019-01-24T11:58:08.317Z,1004.68
2019-01-24T11:59:08.285Z,1004.67
2019-01-24T12:00:08.271Z,1004.67
2019-01-24T12:01:08.262Z,1004.66
2019-01-24T12:02:08.249Z,1004.71
2019-01-24T12:03:08.266Z,1004.74
2019-01-24T12:04:08.226Z,1004.78
2019-01-24T12:05:08.215Z,1004.73
2019-01-24T12:06:08.205Z,1004.74
2019-01-24T12:07:08.194Z,1004.77